createdAt,value
2018-07-28T00:01:54.777Z,27.27
2018-07-28T00:04:25.108Z,27.42
2018-07-28T00:06:55.392Z,27.30
2018-07-28T00:09:25.677Z,27.42
2018-07-28T00:11:56.069Z,27.47
2018-07-28T00:14:26.378Z,27.54
2018-07-28T00:16:57.092Z,27.45
2018-07-28T00:19:27.473Z,27.53
2018-07-28T00:21:58.280Z,27.48
2018-07-28T00:24:28.985Z,27.28
2018-07-28T00:26:59.817Z,26.99
2018-07-28T00:29:30.388Z,27.12
2018-07-28T00:32:01.069Z,26.61
2018-07-28T00:34:31.818Z,26.58
2018-07-28T00:37:02.677Z,26.62
2018-07-28T00:39:33.221Z,26.42
2018-07-28T00:42:04.188Z,26.77
2018-07-28T00:44:34.493Z,26.54
2018-07-28T00:47:05.242Z,26.83
2018-07-28T00:49:35.845Z,26.91
2018-07-28T00:52:06.661Z,26.79
2018-07-28T00:54:37.212Z,26.80
2018-07-28T00:57:07.683Z,26.77
2018-07-28T00:59:38.002Z,26.67
2018-07-28T01:02:08.899Z,26.56
2018-07-28T01:04:39.184Z,26.49
2018-07-28T01:07:09.494Z,26.54
2018-07-28T01:09:39.833Z,26.44
2018-07-28T01:12:10.113Z,26.55
2018-07-28T01:14:40.477Z,26.45
2018-07-28T01:17:10.684Z,26.25
2018-07-28T01:19:41.127Z,26.13
2018-07-28T01:22:11.473Z,26.32
2018-07-28T01:24:41.956Z,26.44
2018-07-28T01:27:12.317Z,26.03
2018-07-28T01:29:42.917Z,25.81
2018-07-28T01:32:13.253Z,25.57
2018-07-28T01:34:43.549Z,25.52
2018-07-28T01:37:13.789Z,25.53
2018-07-28T01:39:44.208Z,25.67
2018-07-28T01:42:14.501Z,25.65
2018-07-28T01:44:44.800Z,25.66
2018-07-28T01:47:15.032Z,25.42
2018-07-28T01:49:45.693Z,25.41
2018-07-28T01:52:15.940Z,25.31
2018-07-28T01:54:46.477Z,25.38
2018-07-28T01:57:16.818Z,25.62
2018-07-28T01:59:47.466Z,25.77
2018-07-28T02:02:17.704Z,25.45
2018-07-28T02:04:48.362Z,25.69
2018-07-28T02:07:18.622Z,25.42
2018-07-28T02:09:48.949Z,25.77
2018-07-28T02:12:19.253Z,25.69
2018-07-28T02:14:49.617Z,25.79
2018-07-28T02:17:20.051Z,25.65
2018-07-28T02:19:50.661Z,25.16
2018-07-28T02:22:21.185Z,25.11
2018-07-28T02:24:51.445Z,25.11
2018-07-28T02:27:21.862Z,24.98
2018-07-28T02:29:52.217Z,25.24
2018-07-28T02:32:22.510Z,25.23
2018-07-28T02:34:53.434Z,25.34
2018-07-28T02:37:23.728Z,24.95
2018-07-28T02:39:54.281Z,25.10
2018-07-28T02:42:24.543Z,25.29
2018-07-28T02:44:54.816Z,25.39
2018-07-28T02:47:25.094Z,25.49
2018-07-28T02:49:55.624Z,25.40
2018-07-28T02:52:25.878Z,25.35
2018-07-28T02:54:57.337Z,25.58
2018-07-28T02:57:27.623Z,25.34
2018-07-28T02:59:57.463Z,25.26
2018-07-28T03:02:28.033Z,25.24
2018-07-28T03:04:58.767Z,25.18
2018-07-28T03:07:30.313Z,25.04
2018-07-28T03:10:01.181Z,25.45
2018-07-28T03:12:31.889Z,25.69
2018-07-28T03:15:04.139Z,25.60
2018-07-28T03:17:34.673Z,25.55
2018-07-28T03:20:05.753Z,25.43
2018-07-28T03:22:36.345Z,25.34
2018-07-28T03:25:07.420Z,25.39
2018-07-28T03:27:38.016Z,25.30
2018-07-28T03:30:08.657Z,25.15
2018-07-28T03:32:39.278Z,25.33
2018-07-28T03:35:10.117Z,25.63
2018-07-28T03:37:40.765Z,25.69
2018-07-28T03:40:11.393Z,25.71
2018-07-28T03:42:41.996Z,25.55
2018-07-28T03:45:13.093Z,25.74
2018-07-28T03:47:43.838Z,25.74
2018-07-28T03:50:15.740Z,25.66
2018-07-28T03:52:46.176Z,25.71
2018-07-28T03:55:17.037Z,25.57
2018-07-28T03:57:47.800Z,25.68
2018-07-28T04:00:18.456Z,25.86
2018-07-28T04:02:49.265Z,25.84
2018-07-28T04:05:20.041Z,25.96
2018-07-28T04:07:50.664Z,26.06
2018-07-28T04:10:21.181Z,26.19
2018-07-28T04:12:51.435Z,26.06
2018-07-28T04:15:43.172Z,25.93
2018-07-28T04:18:13.384Z,26.01
2018-07-28T04:20:46.272Z,25.93
2018-07-28T04:23:16.881Z,26.04
2018-07-28T04:25:48.681Z,26.05
2018-07-28T04:28:19.438Z,25.84
2018-07-28T04:30:50.141Z,25.90
2018-07-28T04:33:20.682Z,26.00
2018-07-28T04:35:51.245Z,26.10
2018-07-28T04:38:21.797Z,26.09
2018-07-28T04:40:52.475Z,26.44
2018-07-28T04:43:24.643Z,26.54
2018-07-28T04:45:55.536Z,26.61
2018-07-28T04:48:25.772Z,26.47
2018-07-28T04:50:56.296Z,26.57
2018-07-28T04:53:26.573Z,26.77
2018-07-28T04:55:57.312Z,27.13
2018-07-28T04:58:28.040Z,27.10
2018-07-28T05:00:58.849Z,27.33
2018-07-28T05:03:29.380Z,27.40
2018-07-28T05:06:00.258Z,28.06
2018-07-28T05:08:31.109Z,28.44
2018-07-28T05:11:01.900Z,28.61
2018-07-28T05:13:32.517Z,28.97
2018-07-28T05:16:03.246Z,28.81
2018-07-28T05:18:33.740Z,28.99
2018-07-28T05:21:04.122Z,28.85
2018-07-28T05:23:34.905Z,28.97
2018-07-28T05:26:09.387Z,29.02
2018-07-28T05:28:39.804Z,29.45
2018-07-28T05:31:10.258Z,29.79
2018-07-28T05:33:40.878Z,30.67
2018-07-28T05:36:12.073Z,30.43
2018-07-28T05:38:42.429Z,30.66
2018-07-28T05:41:13.178Z,30.49
2018-07-28T05:43:43.436Z,30.99
2018-07-28T05:46:15.433Z,31.92
2018-07-28T05:48:45.775Z,31.51
2018-07-28T05:51:16.285Z,31.60
2018-07-28T05:53:46.660Z,31.78
2018-07-28T05:56:17.525Z,31.94
2018-07-28T05:58:48.674Z,31.41
2018-07-28T06:01:20.011Z,31.52
2018-07-28T06:03:50.790Z,32.13
2018-07-28T06:06:21.841Z,31.99
2018-07-28T06:08:52.789Z,32.27
2018-07-28T06:11:24.028Z,32.33
2018-07-28T06:13:55.797Z,32.10
2018-07-28T06:16:26.492Z,32.49
2018-07-28T06:18:57.097Z,32.11
2018-07-28T06:21:27.665Z,31.61
2018-07-28T06:23:58.837Z,32.22
2018-07-28T06:26:29.747Z,31.92
2018-07-28T06:29:00.669Z,32.04
2018-07-28T06:31:31.497Z,32.24
2018-07-28T06:34:01.930Z,31.88
2018-07-28T06:36:32.557Z,32.31
2018-07-28T06:39:03.160Z,33.04
2018-07-28T06:41:33.905Z,32.48
2018-07-28T06:44:04.795Z,32.90
2018-07-28T06:46:35.783Z,32.99
2018-07-28T06:49:08.082Z,32.79
2018-07-28T06:51:39.749Z,32.92
2018-07-28T06:54:11.837Z,33.16
2018-07-28T06:56:43.471Z,33.38
2018-07-28T06:59:13.963Z,33.58
2018-07-28T07:01:46.596Z,33.05
2018-07-28T07:04:17.087Z,34.09
2018-07-28T07:06:47.312Z,34.25
2018-07-28T07:09:17.865Z,34.34
2018-07-28T07:11:48.173Z,34.16
2018-07-28T07:14:18.878Z,33.82
2018-07-28T07:16:49.596Z,35.12
2018-07-28T07:19:20.085Z,34.73
2018-07-28T07:21:50.603Z,35.43
2018-07-28T07:24:21.374Z,35.33
2018-07-28T07:26:52.007Z,35.50
2018-07-28T07:29:24.222Z,34.44
2018-07-28T07:31:54.997Z,33.34
2018-07-28T07:34:25.832Z,33.16
2018-07-28T07:36:56.512Z,33.39
2018-07-28T07:39:27.397Z,34.13
2018-07-28T07:41:58.017Z,34.91
2018-07-28T07:44:28.606Z,34.78
2018-07-28T07:46:59.521Z,35.15
2018-07-28T07:49:30.253Z,35.59
2018-07-28T07:52:01.214Z,35.45
2018-07-28T07:54:32.193Z,35.57
2018-07-28T07:57:03.031Z,35.55
2018-07-28T07:59:34.769Z,35.89
2018-07-28T08:02:05.839Z,36.15
2018-07-28T08:04:36.499Z,35.75
2018-07-28T08:07:07.125Z,36.01
2018-07-28T08:09:37.748Z,36.67
2018-07-28T08:12:08.573Z,36.51
2018-07-28T08:14:39.389Z,36.65
2018-07-28T08:17:10.005Z,38.07
2018-07-28T08:19:41.400Z,37.42
2018-07-28T08:22:12.073Z,36.58
2018-07-28T08:24:42.625Z,37.05
2018-07-28T08:27:13.340Z,37.53
2018-07-28T08:29:44.177Z,37.18
2018-07-28T08:32:14.448Z,36.94
2018-07-28T08:34:45.532Z,36.96
2018-07-28T08:37:15.857Z,36.76
2018-07-28T08:39:46.690Z,37.12
2018-07-28T08:42:17.168Z,37.12
2018-07-28T08:44:47.952Z,37.86
2018-07-28T08:47:18.677Z,38.27
2018-07-28T08:49:48.894Z,38.22
2018-07-28T08:52:19.052Z,38.10
2018-07-28T08:55:09.707Z,37.58
2018-07-28T08:57:45.496Z,37.79
2018-07-28T09:00:16.401Z,37.73
2018-07-28T09:02:47.073Z,37.42
2018-07-28T09:05:17.878Z,37.33
2018-07-28T09:07:48.493Z,37.48
2018-07-28T09:10:19.568Z,37.89
2018-07-28T09:12:50.216Z,37.88
2018-07-28T09:15:20.993Z,37.64
2018-07-28T09:17:51.765Z,38.44
2018-07-28T09:20:22.397Z,38.70
2018-07-28T09:22:53.076Z,39.06
2018-07-28T09:25:23.929Z,38.06
2018-07-28T09:27:54.621Z,38.21
2018-07-28T09:30:25.489Z,39.07
2018-07-28T09:32:56.077Z,39.19
2018-07-28T09:35:26.849Z,38.11
2018-07-28T09:37:57.580Z,38.08
2018-07-28T09:40:28.406Z,38.17
2018-07-28T09:42:59.105Z,39.02
2018-07-28T09:45:29.864Z,39.73
2018-07-28T09:48:00.417Z,39.78
2018-07-28T09:50:31.105Z,39.71
2018-07-28T09:53:01.616Z,39.62
2018-07-28T09:55:32.288Z,39.72
2018-07-28T09:58:02.998Z,40.61
2018-07-28T10:00:38.761Z,40.06
2018-07-28T10:03:09.330Z,39.58
2018-07-28T10:05:40.089Z,39.91
2018-07-28T10:08:10.621Z,39.11
2018-07-28T10:10:41.296Z,39.76
2018-07-28T10:13:12.013Z,39.14
2018-07-28T10:15:42.916Z,39.11
2018-07-28T10:18:13.560Z,39.92
2018-07-28T10:20:44.117Z,38.94
2018-07-28T10:23:14.814Z,38.51
2018-07-28T10:25:45.821Z,38.97
2018-07-28T10:28:16.280Z,39.47
2018-07-28T10:30:47.189Z,39.72
2018-07-28T10:33:17.828Z,39.53
2018-07-28T10:35:48.581Z,39.45
2018-07-28T10:38:19.152Z,40.70
2018-07-28T10:40:49.780Z,40.15
2018-07-28T10:43:20.493Z,40.24
2018-07-28T10:45:51.292Z,39.63
2018-07-28T10:48:21.780Z,40.22
2018-07-28T10:50:52.717Z,40.64
2018-07-28T10:53:23.285Z,39.62
2018-07-28T10:55:53.973Z,39.90
2018-07-28T10:58:24.757Z,39.17
2018-07-28T11:00:55.613Z,39.30
2018-07-28T11:03:25.584Z,39.38
2018-07-28T11:05:56.226Z,39.29
2018-07-28T11:08:26.744Z,39.28
2018-07-28T11:10:57.352Z,39.89
2018-07-28T11:13:27.972Z,39.90
2018-07-28T11:15:59.004Z,40.14
2018-07-28T11:18:29.621Z,40.53
2018-07-28T11:21:00.409Z,40.60
2018-07-28T11:24:02.582Z,41.84
2018-07-28T11:26:33.449Z,42.08
2018-07-28T11:29:04.150Z,41.88
2018-07-28T11:31:51.082Z,41.50
2018-07-28T11:34:37.826Z,40.74
2018-07-28T11:37:24.641Z,40.75
2018-07-28T11:40:11.388Z,42.10
2018-07-28T11:42:58.311Z,40.37
2018-07-28T11:45:28.956Z,40.33
2018-07-28T11:47:59.785Z,40.62
2018-07-28T11:50:30.326Z,40.49
2018-07-28T11:53:01.113Z,40.77
2018-07-28T11:55:31.793Z,39.93
2018-07-28T11:58:02.894Z,38.68
2018-07-28T12:00:33.508Z,38.09
2018-07-28T12:03:04.341Z,37.91
2018-07-28T12:05:34.926Z,38.81
2018-07-28T12:08:05.562Z,39.41
2018-07-28T12:10:36.224Z,39.38
2018-07-28T12:13:06.608Z,39.19
2018-07-28T12:15:37.348Z,40.11
2018-07-28T12:18:08.487Z,39.37
2018-07-28T12:20:39.220Z,39.11
2018-07-28T12:23:09.945Z,39.41
2018-07-28T12:25:40.640Z,39.21
2018-07-28T12:28:11.448Z,39.05
2018-07-28T12:30:42.137Z,39.53
2018-07-28T12:33:12.808Z,40.14
2018-07-28T12:35:43.679Z,39.86
2018-07-28T12:38:14.437Z,41.07
2018-07-28T12:40:45.113Z,42.22
2018-07-28T12:43:15.764Z,41.51
2018-07-28T12:45:46.321Z,39.57
2018-07-28T12:48:17.116Z,39.75
2018-07-28T12:50:47.888Z,38.22
2018-07-28T12:53:18.742Z,38.76
2018-07-28T12:55:49.517Z,39.41
2018-07-28T12:58:20.268Z,39.72
2018-07-28T13:00:50.893Z,39.65
2018-07-28T13:03:21.585Z,39.27
2018-07-28T13:05:52.217Z,39.46
2018-07-28T13:08:23.149Z,38.90
2018-07-28T13:10:53.824Z,38.32
2018-07-28T13:13:24.800Z,38.36
2018-07-28T13:15:55.542Z,38.95
2018-07-28T13:18:26.200Z,39.55
2018-07-28T13:20:56.801Z,39.32
2018-07-28T13:23:27.660Z,39.51
2018-07-28T13:25:58.217Z,37.57
2018-07-28T13:28:29.024Z,35.53
2018-07-28T13:30:59.677Z,33.30
2018-07-28T13:33:30.545Z,32.40
2018-07-28T13:36:01.197Z,32.08
2018-07-28T13:38:31.905Z,31.46
2018-07-28T13:41:02.562Z,30.90
2018-07-28T13:43:33.069Z,30.60
2018-07-28T13:46:21.052Z,30.37
2018-07-28T13:48:51.719Z,29.66
2018-07-28T13:51:22.349Z,29.03
2018-07-28T13:53:52.876Z,28.41
2018-07-28T13:56:23.496Z,28.75
2018-07-28T13:58:54.333Z,28.37
2018-07-28T14:01:24.865Z,28.95
2018-07-28T14:03:55.798Z,29.43
2018-07-28T14:06:26.362Z,29.59
2018-07-28T14:08:56.838Z,30.26
2018-07-28T14:11:27.389Z,30.24
2018-07-28T14:13:58.117Z,30.85
2018-07-28T14:16:28.601Z,31.15
2018-07-28T14:18:59.446Z,31.04
2018-07-28T14:21:29.989Z,31.00
2018-07-28T14:24:00.638Z,31.24
2018-07-28T14:26:31.145Z,31.74
2018-07-28T14:29:01.841Z,32.48
2018-07-28T14:31:32.286Z,32.80
2018-07-28T14:34:03.153Z,33.33
2018-07-28T14:36:42.444Z,33.50
2018-07-28T14:39:13.121Z,33.33
2018-07-28T14:41:43.749Z,33.50
2018-07-28T14:44:14.443Z,33.49
2018-07-28T14:46:45.267Z,33.27
2018-07-28T14:49:16.205Z,33.32
2018-07-28T14:51:47.529Z,33.47
2018-07-28T14:54:18.037Z,33.27
2018-07-28T14:56:48.917Z,33.57
2018-07-28T14:59:19.865Z,32.88
2018-07-28T15:01:50.377Z,32.65
2018-07-28T15:04:21.169Z,32.55
2018-07-28T15:06:51.813Z,32.75
2018-07-28T15:09:22.508Z,32.53
2018-07-28T15:11:53.145Z,32.57
2018-07-28T15:14:23.812Z,32.46
2018-07-28T15:16:54.494Z,32.36
2018-07-28T15:19:25.297Z,32.57
2018-07-28T15:21:55.949Z,32.37
2018-07-28T15:24:27.026Z,32.26
2018-07-28T15:26:57.748Z,32.27
2018-07-28T15:29:28.376Z,32.16
2018-07-28T15:31:59.002Z,32.10
2018-07-28T15:34:29.720Z,32.31
2018-07-28T15:37:00.380Z,32.14
2018-07-28T15:39:30.649Z,32.05
2018-07-28T15:42:01.260Z,32.18
2018-07-28T15:44:32.084Z,32.17
2018-07-28T15:47:02.897Z,32.18
2018-07-28T15:49:33.925Z,32.23
2018-07-28T15:52:04.478Z,32.31
2018-07-28T15:54:35.301Z,32.28
2018-07-28T15:57:06.273Z,32.13
2018-07-28T15:59:37.104Z,32.04
2018-07-28T16:02:07.881Z,32.18
2018-07-28T16:04:38.649Z,32.44
2018-07-28T16:07:09.397Z,32.34
2018-07-28T16:09:40.597Z,32.47
2018-07-28T16:12:11.152Z,32.55
2018-07-28T16:14:41.989Z,32.55
2018-07-28T16:17:12.613Z,32.52
2018-07-28T16:19:43.300Z,32.62
2018-07-28T16:22:13.936Z,32.39
2018-07-28T16:24:45.022Z,32.56
2018-07-28T16:27:15.569Z,32.63
2018-07-28T16:29:46.457Z,32.75
2018-07-28T16:32:17.045Z,32.77
2018-07-28T16:34:47.632Z,32.82
2018-07-28T16:37:18.216Z,32.77
2018-07-28T16:39:48.616Z,32.66
2018-07-28T16:42:19.236Z,32.48
2018-07-28T16:44:50.073Z,32.42
2018-07-28T16:47:20.637Z,32.30
2018-07-28T16:49:51.408Z,32.19
2018-07-28T16:52:22.214Z,31.96
2018-07-28T16:54:53.238Z,32.25
2018-07-28T16:57:23.881Z,32.08
2018-07-28T16:59:54.704Z,32.11
2018-07-28T17:02:25.246Z,31.90
2018-07-28T17:04:56.073Z,31.69
2018-07-28T17:07:26.754Z,31.85
2018-07-28T17:09:57.810Z,31.67
2018-07-28T17:12:28.432Z,31.76
2018-07-28T17:14:59.062Z,31.60
2018-07-28T17:17:29.613Z,31.72
2018-07-28T17:20:00.218Z,31.68
2018-07-28T17:22:30.871Z,31.78
2018-07-28T17:25:01.590Z,31.59
2018-07-28T17:27:32.268Z,31.38
2018-07-28T17:30:03.056Z,31.61
2018-07-28T17:32:33.636Z,31.32
2018-07-28T17:35:04.501Z,31.30
2018-07-28T17:37:35.816Z,31.27
2018-07-28T17:40:06.452Z,31.32
2018-07-28T17:42:37.076Z,31.17
2018-07-28T17:45:08.502Z,31.05
2018-07-28T17:47:39.017Z,30.87
2018-07-28T17:50:09.619Z,31.06
2018-07-28T17:52:40.188Z,30.91
2018-07-28T17:55:10.825Z,30.77
2018-07-28T17:57:41.476Z,30.88
2018-07-28T18:00:12.181Z,30.89
2018-07-28T18:02:42.788Z,30.86
2018-07-28T18:05:13.417Z,30.82
2018-07-28T18:07:44.066Z,30.71
2018-07-28T18:10:15.101Z,30.72
2018-07-28T18:12:45.672Z,30.71
2018-07-28T18:15:16.449Z,30.63
2018-07-28T18:17:47.194Z,30.73
2018-07-28T18:20:17.950Z,30.54
2018-07-28T18:22:48.726Z,30.66
2018-07-28T18:25:19.461Z,30.46
2018-07-28T18:27:49.973Z,30.46
2018-07-28T18:30:20.813Z,30.57
2018-07-28T18:32:51.595Z,30.59
2018-07-28T18:35:22.573Z,30.54
2018-07-28T18:37:53.221Z,30.59
2018-07-28T18:40:23.970Z,30.54
2018-07-28T18:42:54.198Z,30.55
2018-07-28T18:45:24.961Z,30.41
2018-07-28T18:47:55.697Z,30.35
2018-07-28T18:50:26.553Z,30.24
2018-07-28T18:52:57.205Z,30.56
2018-07-28T18:55:28.004Z,30.50
2018-07-28T18:57:58.628Z,30.32
2018-07-28T19:00:29.369Z,30.23
2018-07-28T19:02:59.937Z,30.18
2018-07-28T19:05:30.605Z,30.09
2018-07-28T19:08:01.285Z,30.24
2018-07-28T19:10:31.945Z,30.02
2018-07-28T19:13:07.645Z,29.96
2018-07-28T19:15:38.530Z,30.11
2018-07-28T19:18:14.081Z,30.02
2018-07-28T19:20:44.797Z,30.08
2018-07-28T19:23:20.340Z,30.15
2018-07-28T19:25:50.857Z,30.26
2018-07-28T19:28:26.373Z,30.38
2018-07-28T19:30:57.098Z,30.54
2018-07-28T19:33:27.657Z,30.57
2018-07-28T19:36:03.278Z,30.50
2018-07-28T19:38:33.936Z,30.33
2018-07-28T19:41:04.510Z,30.33
2018-07-28T19:43:35.117Z,30.36
2018-07-28T19:46:05.957Z,30.12
2018-07-28T19:48:36.697Z,30.03
2018-07-28T19:51:07.893Z,30.06
2018-07-28T19:53:38.393Z,29.92
2018-07-28T19:56:09.126Z,30.00
2018-07-28T19:58:39.732Z,29.95
2018-07-28T20:01:10.689Z,29.95
2018-07-28T20:03:41.396Z,29.87
2018-07-28T20:06:12.533Z,29.96
2018-07-28T20:08:43.214Z,30.19
2018-07-28T20:11:14.000Z,30.14
2018-07-28T20:13:44.684Z,30.18
2018-07-28T20:16:15.408Z,29.98
2018-07-28T20:18:45.982Z,29.57
2018-07-28T20:21:16.685Z,29.19
2018-07-28T20:23:47.312Z,29.38
2018-07-28T20:26:18.242Z,29.35
2018-07-28T20:28:48.841Z,29.69
2018-07-28T20:31:19.545Z,29.59
2018-07-28T20:33:50.197Z,29.53
2018-07-28T20:36:21.189Z,29.75
2018-07-28T20:38:51.817Z,29.68
2018-07-28T20:41:22.532Z,29.38
2018-07-28T20:43:54.057Z,29.28
2018-07-28T20:46:24.733Z,29.42
2018-07-28T20:48:55.384Z,29.64
2018-07-28T20:51:26.159Z,29.37
2018-07-28T20:53:56.776Z,29.36
2018-07-28T20:56:27.384Z,29.11
2018-07-28T20:58:57.904Z,28.77
2018-07-28T21:01:28.480Z,28.97
2018-07-28T21:03:59.097Z,28.47
2018-07-28T21:06:29.861Z,27.89
2018-07-28T21:09:00.659Z,27.44
2018-07-28T21:11:31.382Z,26.95
2018-07-28T21:14:02.924Z,27.00
2018-07-28T21:16:33.794Z,27.28
2018-07-28T21:19:04.737Z,27.39
2018-07-28T21:21:36.871Z,27.45
2018-07-28T21:24:07.726Z,27.46
2018-07-28T21:26:38.393Z,27.49
2018-07-28T21:29:09.034Z,27.48
2018-07-28T21:31:39.857Z,27.39
2018-07-28T21:34:10.555Z,27.10
2018-07-28T21:36:41.938Z,26.79
2018-07-28T21:39:12.465Z,26.70
2018-07-28T21:41:43.145Z,26.78
2018-07-28T21:44:13.717Z,26.52
2018-07-28T21:46:44.789Z,26.61
2018-07-28T21:49:15.397Z,26.79
2018-07-28T21:51:46.077Z,26.85
2018-07-28T21:54:16.803Z,26.83
2018-07-28T21:56:47.426Z,26.67
2018-07-28T21:59:18.211Z,26.66
2018-07-28T22:01:48.388Z,26.39
2018-07-28T22:04:23.869Z,26.66
2018-07-28T22:06:55.506Z,26.45
2018-07-28T22:09:26.141Z,26.28
2018-07-28T22:11:56.724Z,26.08
2018-07-28T22:14:27.736Z,26.08
2018-07-28T22:16:58.545Z,25.94
2018-07-28T22:19:47.625Z,26.00
2018-07-28T22:22:18.037Z,25.88
2018-07-28T22:24:48.872Z,26.05
2018-07-28T22:27:19.409Z,25.73
2018-07-28T22:29:50.268Z,25.73
2018-07-28T22:32:20.841Z,25.76
2018-07-28T22:34:51.831Z,26.10
2018-07-28T22:37:22.364Z,25.94
2018-07-28T22:39:52.985Z,26.31
2018-07-28T22:42:38.544Z,26.17
2018-07-28T22:45:09.299Z,26.03
2018-07-28T22:47:39.929Z,26.24
2018-07-28T22:50:10.724Z,26.63
2018-07-28T22:52:41.443Z,26.57
2018-07-28T22:55:12.393Z,26.72
2018-07-28T22:57:43.085Z,26.88
2018-07-28T23:00:13.954Z,26.36
2018-07-28T23:02:46.357Z,26.24
2018-07-28T23:05:17.160Z,26.36
2018-07-28T23:07:47.796Z,26.06
2018-07-28T23:10:18.388Z,25.47
2018-07-28T23:12:49.118Z,25.56
2018-07-28T23:15:19.896Z,25.37
2018-07-28T23:17:50.636Z,25.64
2018-07-28T23:20:21.423Z,25.48
2018-07-28T23:22:51.969Z,25.29
2018-07-28T23:25:22.768Z,25.27
2018-07-28T23:27:53.625Z,25.10
2018-07-28T23:30:24.637Z,25.21
2018-07-28T23:32:56.779Z,25.47
2018-07-28T23:35:27.511Z,25.97
2018-07-28T23:37:58.206Z,25.85
2018-07-28T23:40:28.928Z,26.32
2018-07-28T23:42:59.500Z,26.41
2018-07-28T23:45:31.437Z,26.30
2018-07-28T23:48:01.973Z,26.32
2018-07-28T23:50:32.524Z,26.29
2018-07-28T23:53:03.584Z,25.75
2018-07-28T23:55:34.414Z,25.69
2018-07-28T23:58:05.048Z,25.97
